sensor_id;sensor_type;location;lat;lon;timestamp;pressure;altitude;pressure_sealevel;temperature;humidity
60974;BME280;46846;51.528;5.076;2022-10-16T00:00:52;100461.22;;;12.36;73.01
60974;BME280;46846;51.528;5.076;2022-10-16T00:03:17;100460.34;;;12.36;72.92
60974;BME280;46846;51.528;5.076;2022-10-16T00:05:43;100463.00;;;12.36;73.17
60974;BME280;46846;51.528;5.076;2022-10-16T00:08:10;100462.06;;;12.37;72.98
60974;BME280;46846;51.528;5.076;2022-10-16T00:10:36;100456.97;;;12.32;73.23
60974;BME280;46846;51.528;5.076;2022-10-16T00:13:01;100463.97;;;12.35;73.02
60974;BME280;46846;51.528;5.076;2022-10-16T00:15:26;100456.13;;;12.32;73.33
60974;BME280;46846;51.528;5.076;2022-10-16T00:17:52;100457.91;;;12.31;72.98
60974;BME280;46846;51.528;5.076;2022-10-16T00:20:17;100465.84;;;12.33;72.81
60974;BME280;46846;51.528;5.076;2022-10-16T00:22:42;100457.84;;;12.33;73.12
60974;BME280;46846;51.528;5.076;2022-10-16T00:25:08;100459.78;;;12.29;72.98
60974;BME280;46846;51.528;5.076;2022-10-16T00:27:33;100462.34;;;12.30;73.05
60974;BME280;46846;51.528;5.076;2022-10-16T00:29:59;100457.03;;;12.30;73.05
60974;BME280;46846;51.528;5.076;2022-10-16T00:32:24;100456.19;;;12.30;72.79
60974;BME280;46846;51.528;5.076;2022-10-16T00:34:49;100459.63;;;12.32;72.61
60974;BME280;46846;51.528;5.076;2022-10-16T00:37:15;100450.84;;;12.30;73.00
60974;BME280;46846;51.528;5.076;2022-10-16T00:39:40;100459.78;;;12.29;72.80
60974;BME280;46846;51.528;5.076;2022-10-16T00:42:05;100454.59;;;12.26;73.11
60974;BME280;46846;51.528;5.076;2022-10-16T00:44:41;100454.44;;;12.29;72.67
60974;BME280;46846;51.528;5.076;2022-10-16T00:47:10;100461.63;;;12.27;72.87
60974;BME280;46846;51.528;5.076;2022-10-16T00:49:37;100453.50;;;12.30;72.91
60974;BME280;46846;51.528;5.076;2022-10-16T00:52:03;100461.56;;;12.28;73.01
60974;BME280;46846;51.528;5.076;2022-10-16T00:54:29;100446.56;;;12.26;72.85
60974;BME280;46846;51.528;5.076;2022-10-16T00:56:55;100456.53;;;12.22;73.05
60974;BME280;46846;51.528;5.076;2022-10-16T00:59:25;100456.31;;;12.27;73.10
60974;BME280;46846;51.528;5.076;2022-10-16T01:01:51;100467.91;;;12.26;72.57
60974;BME280;46846;51.528;5.076;2022-10-16T01:04:17;100463.53;;;12.25;72.67
60974;BME280;46846;51.528;5.076;2022-10-16T01:11:41;100467.34;;;12.19;72.98
60974;BME280;46846;51.528;5.076;2022-10-16T01:14:56;100467.34;;;12.19;72.91
60974;BME280;46846;51.528;5.076;2022-10-16T01:20:10;100463.81;;;12.19;72.98
60974;BME280;46846;51.528;5.076;2022-10-16T01:25:35;100461.16;;;12.19;72.97
60974;BME280;46846;51.528;5.076;2022-10-16T01:28:02;100455.97;;;12.15;72.78
60974;BME280;46846;51.528;5.076;2022-10-16T01:30:30;100463.09;;;12.15;72.75
60974;BME280;46846;51.528;5.076;2022-10-16T01:32:59;100452.41;;;12.15;72.94
60974;BME280;46846;51.528;5.076;2022-10-16T01:35:35;100467.56;;;12.14;73.06
60974;BME280;46846;51.528;5.076;2022-10-16T01:38:17;100477.38;;;12.14;72.83
60974;BME280;46846;51.528;5.076;2022-10-16T01:40:46;100473.03;;;12.11;73.14
60974;BME280;46846;51.528;5.076;2022-10-16T01:43:16;100460.72;;;12.09;73.34
60974;BME280;46846;51.528;5.076;2022-10-16T01:45:43;100443.06;;;12.06;73.18
60974;BME280;46846;51.528;5.076;2022-10-16T01:48:09;100446.59;;;12.07;73.02
60974;BME280;46846;51.528;5.076;2022-10-16T01:50:37;100451.06;;;12.06;73.49
60974;BME280;46846;51.528;5.076;2022-10-16T01:53:05;100451.69;;;12.11;72.99
60974;BME280;46846;51.528;5.076;2022-10-16T01:55:32;100458.13;;;12.07;73.37
60974;BME280;46846;51.528;5.076;2022-10-16T01:57:59;100454.53;;;12.08;73.27
60974;BME280;46846;51.528;5.076;2022-10-16T02:00:25;100455.31;;;12.10;72.90
60974;BME280;46846;51.528;5.076;2022-10-16T02:02:51;100460.81;;;12.07;72.90
60974;BME280;46846;51.528;5.076;2022-10-16T02:05:24;100472.31;;;12.08;73.08
60974;BME280;46846;51.528;5.076;2022-10-16T02:07:50;100461.81;;;12.05;73.17
60974;BME280;46846;51.528;5.076;2022-10-16T02:10:16;100473.44;;;12.02;73.33
60974;BME280;46846;51.528;5.076;2022-10-16T02:12:44;100472.59;;;12.01;73.01
60974;BME280;46846;51.528;5.076;2022-10-16T02:15:10;100471.72;;;12.01;73.15
60974;BME280;46846;51.528;5.076;2022-10-16T02:17:36;100464.59;;;12.01;73.42
60974;BME280;46846;51.528;5.076;2022-10-16T02:20:01;100457.50;;;12.00;73.33
60974;BME280;46846;51.528;5.076;2022-10-16T02:25:15;100469.22;;;11.98;73.36
60974;BME280;46846;51.528;5.076;2022-10-16T02:30:30;100471.88;;;11.98;73.12
60974;BME280;46846;51.528;5.076;2022-10-16T02:32:58;100473.00;;;11.92;73.11
60974;BME280;46846;51.528;5.076;2022-10-16T02:35:25;100477.34;;;11.95;73.57
60974;BME280;46846;51.528;5.076;2022-10-16T02:37:52;100484.38;;;11.96;73.19
60974;BME280;46846;51.528;5.076;2022-10-16T02:40:17;100471.28;;;11.91;73.39
60974;BME280;46846;51.528;5.076;2022-10-16T02:42:43;100465.09;;;11.90;73.49
60974;BME280;46846;51.528;5.076;2022-10-16T02:45:09;100462.22;;;11.95;73.35
60974;BME280;46846;51.528;5.076;2022-10-16T02:47:34;100464.88;;;11.95;73.16
60974;BME280;46846;51.528;5.076;2022-10-16T02:50:00;100465.81;;;11.94;73.04
60974;BME280;46846;51.528;5.076;2022-10-16T02:52:25;100458.81;;;11.92;73.21
60974;BME280;46846;51.528;5.076;2022-10-16T02:54:51;100456.88;;;11.95;73.44
60974;BME280;46846;51.528;5.076;2022-10-16T02:57:16;100465.88;;;11.93;73.14
60974;BME280;46846;51.528;5.076;2022-10-16T02:59:42;100466.81;;;11.92;73.19
60974;BME280;46846;51.528;5.076;2022-10-16T03:02:07;100465.81;;;11.94;72.91
60974;BME280;46846;51.528;5.076;2022-10-16T03:04:32;100463.22;;;11.93;73.03
60974;BME280;46846;51.528;5.076;2022-10-16T03:06:58;100463.22;;;11.93;73.35
60974;BME280;46846;51.528;5.076;2022-10-16T03:09:23;100465.94;;;11.91;73.19
60974;BME280;46846;51.528;5.076;2022-10-16T03:11:48;100461.50;;;11.92;73.05
60974;BME280;46846;51.528;5.076;2022-10-16T03:14:13;100474.94;;;11.88;73.17
60974;BME280;46846;51.528;5.076;2022-10-16T03:16:38;100482.09;;;11.88;73.21
60974;BME280;46846;51.528;5.076;2022-10-16T03:19:04;100483.94;;;11.86;73.30
60974;BME280;46846;51.528;5.076;2022-10-16T03:21:29;100491.03;;;11.87;72.95
60974;BME280;46846;51.528;5.076;2022-10-16T03:23:54;100491.88;;;11.87;73.29
60974;BME280;46846;51.528;5.076;2022-10-16T03:26:19;100493.59;;;11.88;73.28
60974;BME280;46846;51.528;5.076;2022-10-16T03:28:45;100487.69;;;11.82;73.26
60974;BME280;46846;51.528;5.076;2022-10-16T03:31:10;100495.69;;;11.82;73.27
60974;BME280;46846;51.528;5.076;2022-10-16T03:33:35;100490.31;;;11.83;73.12
60974;BME280;46846;51.528;5.076;2022-10-16T03:36:00;100480.53;;;11.82;73.40
60974;BME280;46846;51.528;5.076;2022-10-16T03:38:26;100491.22;;;11.82;73.11
60974;BME280;46846;51.528;5.076;2022-10-16T03:40:51;100502.81;;;11.81;73.21
60974;BME280;46846;51.528;5.076;2022-10-16T03:43:16;100500.16;;;11.81;73.00
60974;BME280;46846;51.528;5.076;2022-10-16T03:45:41;100509.97;;;11.81;73.12
60974;BME280;46846;51.528;5.076;2022-10-16T03:48:07;100504.75;;;11.77;73.48
60974;BME280;46846;51.528;5.076;2022-10-16T03:50:32;100510.91;;;11.80;73.49
60974;BME280;46846;51.528;5.076;2022-10-16T03:52:57;100519.81;;;11.79;73.45
60974;BME280;46846;51.528;5.076;2022-10-16T03:55:22;100518.06;;;11.77;73.40
60974;BME280;46846;51.528;5.076;2022-10-16T03:57:47;100519.81;;;11.79;73.36
60974;BME280;46846;51.528;5.076;2022-10-16T04:00:13;100519.91;;;11.77;73.03
60974;BME280;46846;51.528;5.076;2022-10-16T04:02:38;100524.28;;;11.78;73.23
60974;BME280;46846;51.528;5.076;2022-10-16T04:05:04;100516.50;;;11.73;73.36
60974;BME280;46846;51.528;5.076;2022-10-16T04:07:29;100512.84;;;11.76;73.08
60974;BME280;46846;51.528;5.076;2022-10-16T04:09:54;100515.56;;;11.74;73.30
60974;BME280;46846;51.528;5.076;2022-10-16T04:12:20;100515.56;;;11.74;73.19
60974;BME280;46846;51.528;5.076;2022-10-16T04:14:45;100527.00;;;11.76;73.35
60974;BME280;46846;51.528;5.076;2022-10-16T04:17:11;100534.94;;;11.78;73.22
60974;BME280;46846;51.528;5.076;2022-10-16T04:19:36;100528.88;;;11.74;73.19
60974;BME280;46846;51.528;5.076;2022-10-16T04:22:01;100530.69;;;11.74;73.23
60974;BME280;46846;51.528;5.076;2022-10-16T04:24:26;100525.22;;;11.77;73.10
60974;BME280;46846;51.528;5.076;2022-10-16T04:26:52;100525.28;;;11.75;72.83
60974;BME280;46846;51.528;5.076;2022-10-16T04:29:17;100520.84;;;11.76;73.06
60974;BME280;46846;51.528;5.076;2022-10-16T04:31:42;100522.56;;;11.77;72.73
60974;BME280;46846;51.528;5.076;2022-10-16T04:34:07;100542.16;;;11.76;72.75
60974;BME280;46846;51.528;5.076;2022-10-16T04:36:33;100544.81;;;11.76;72.76
60974;BME280;46846;51.528;5.076;2022-10-16T04:38:58;100546.88;;;11.69;73.20
60974;BME280;46846;51.528;5.076;2022-10-16T04:41:23;100567.19;;;11.72;73.04
60974;BME280;46846;51.528;5.076;2022-10-16T04:43:48;100559.16;;;11.73;73.06
60974;BME280;46846;51.528;5.076;2022-10-16T04:46:14;100572.53;;;11.72;73.31
60974;BME280;46846;51.528;5.076;2022-10-16T04:48:42;100577.91;;;11.70;72.88
60974;BME280;46846;51.528;5.076;2022-10-16T04:51:07;100577.91;;;11.70;73.10
60974;BME280;46846;51.528;5.076;2022-10-16T04:53:32;100577.13;;;11.68;73.11
60974;BME280;46846;51.528;5.076;2022-10-16T04:55:58;100578.84;;;11.69;73.28
60974;BME280;46846;51.528;5.076;2022-10-16T04:58:23;100571.66;;;11.71;72.73
60974;BME280;46846;51.528;5.076;2022-10-16T05:00:49;100571.06;;;11.65;73.07
60974;BME280;46846;51.528;5.076;2022-10-16T05:03:14;100572.00;;;11.63;73.00
60974;BME280;46846;51.528;5.076;2022-10-16T05:05:43;100578.28;;;11.62;73.02
60974;BME280;46846;51.528;5.076;2022-10-16T05:08:09;100574.66;;;11.63;72.94
60974;BME280;46846;51.528;5.076;2022-10-16T05:10:34;100585.34;;;11.63;73.16
60974;BME280;46846;51.528;5.076;2022-10-16T05:13:00;100572.06;;;11.62;73.06
60974;BME280;46846;51.528;5.076;2022-10-16T05:15:25;100580.94;;;11.62;73.27
60974;BME280;46846;51.528;5.076;2022-10-16T05:17:52;100585.72;;;11.54;73.28
60974;BME280;46846;51.528;5.076;2022-10-16T05:20:17;100589.13;;;11.58;73.54
60974;BME280;46846;51.528;5.076;2022-10-16T05:22:42;100599.69;;;11.59;73.20
60974;BME280;46846;51.528;5.076;2022-10-16T05:25:07;100593.63;;;11.56;73.04
60974;BME280;46846;51.528;5.076;2022-10-16T05:27:33;100596.31;;;11.56;73.31
60974;BME280;46846;51.528;5.076;2022-10-16T05:29:58;100602.56;;;11.55;73.20
60974;BME280;46846;51.528;5.076;2022-10-16T05:32:26;100605.13;;;11.58;73.08
60974;BME280;46846;51.528;5.076;2022-10-16T05:34:51;100600.72;;;11.57;73.12
60974;BME280;46846;51.528;5.076;2022-10-16T05:37:17;100613.97;;;11.58;73.13
60974;BME280;46846;51.528;5.076;2022-10-16T05:39:42;100621.16;;;11.56;72.91
60974;BME280;46846;51.528;5.076;2022-10-16T05:42:07;100626.50;;;11.56;73.27
60974;BME280;46846;51.528;5.076;2022-10-16T05:44:32;100627.38;;;11.57;73.17
60974;BME280;46846;51.528;5.076;2022-10-16T05:46:58;100634.34;;;11.59;72.92
60974;BME280;46846;51.528;5.076;2022-10-16T05:49:23;100640.56;;;11.60;72.97
60974;BME280;46846;51.528;5.076;2022-10-16T05:51:48;100637.94;;;11.58;73.06
60974;BME280;46846;51.528;5.076;2022-10-16T05:54:14;100651.47;;;11.54;73.18
60974;BME280;46846;51.528;5.076;2022-10-16T05:56:39;100653.16;;;11.56;73.13
60974;BME280;46846;51.528;5.076;2022-10-16T05:59:04;100655.81;;;11.56;72.74
60974;BME280;46846;51.528;5.076;2022-10-16T06:01:30;100656.78;;;11.54;72.99
60974;BME280;46846;51.528;5.076;2022-10-16T06:03:56;100662.06;;;11.55;73.24
60974;BME280;46846;51.528;5.076;2022-10-16T06:06:22;100665.69;;;11.54;72.97
60974;BME280;46846;51.528;5.076;2022-10-16T06:08:48;100671.06;;;11.53;72.75
60974;BME280;46846;51.528;5.076;2022-10-16T06:11:15;100673.78;;;11.51;72.94
60974;BME280;46846;51.528;5.076;2022-10-16T06:13:40;100676.44;;;11.51;73.09
60974;BME280;46846;51.528;5.076;2022-10-16T06:16:11;100680.03;;;11.50;73.12
60974;BME280;46846;51.528;5.076;2022-10-16T06:18:36;100679.06;;;11.53;73.23
60974;BME280;46846;51.528;5.076;2022-10-16T06:21:07;100682.66;;;11.52;72.66
60974;BME280;46846;51.528;5.076;2022-10-16T06:23:32;100695.09;;;11.51;73.02
60974;BME280;46846;51.528;5.076;2022-10-16T06:26:04;100696.03;;;11.50;73.10
60974;BME280;46846;51.528;5.076;2022-10-16T06:28:30;100703.22;;;11.48;73.19
60974;BME280;46846;51.528;5.076;2022-10-16T06:30:58;100700.63;;;11.46;73.05
60974;BME280;46846;51.528;5.076;2022-10-16T06:33:24;100704.16;;;11.47;72.94
60974;BME280;46846;51.528;5.076;2022-10-16T06:35:49;100698.84;;;11.47;72.73
60974;BME280;46846;51.528;5.076;2022-10-16T06:38:14;100697.94;;;11.46;72.81
60974;BME280;46846;51.528;5.076;2022-10-16T06:40:39;100697.94;;;11.46;72.77
60974;BME280;46846;51.528;5.076;2022-10-16T06:43:04;100701.50;;;11.47;73.18
60974;BME280;46846;51.528;5.076;2022-10-16T06:45:30;100712.25;;;11.44;73.03
60974;BME280;46846;51.528;5.076;2022-10-16T06:47:55;100714.00;;;11.45;73.07
60974;BME280;46846;51.528;5.076;2022-10-16T06:50:20;100708.66;;;11.45;72.82
60974;BME280;46846;51.528;5.076;2022-10-16T06:52:45;100729.97;;;11.45;73.08
60974;BME280;46846;51.528;5.076;2022-10-16T06:55:11;100738.09;;;11.42;73.23
60974;BME280;46846;51.528;5.076;2022-10-16T06:57:36;100731.84;;;11.43;73.07
60974;BME280;46846;51.528;5.076;2022-10-16T07:00:02;100741.00;;;11.35;73.39
60974;BME280;46846;51.528;5.076;2022-10-16T07:02:27;100747.22;;;11.36;73.41
60974;BME280;46846;51.528;5.076;2022-10-16T07:04:52;100754.13;;;11.40;73.38
60974;BME280;46846;51.528;5.076;2022-10-16T07:07:17;100755.06;;;11.39;73.12
60974;BME280;46846;51.528;5.076;2022-10-16T07:09:43;100757.78;;;11.38;73.11
60974;BME280;46846;51.528;5.076;2022-10-16T07:12:08;100764.03;;;11.37;73.36
60974;BME280;46846;51.528;5.076;2022-10-16T07:14:33;100782.88;;;11.32;73.23
60974;BME280;46846;51.528;5.076;2022-10-16T07:16:59;100771.25;;;11.34;73.21
60974;BME280;46846;51.528;5.076;2022-10-16T07:19:24;100787.19;;;11.36;73.16
60974;BME280;46846;51.528;5.076;2022-10-16T07:21:50;100789.75;;;11.38;73.23
60974;BME280;46846;51.528;5.076;2022-10-16T07:24:15;100776.81;;;11.28;73.52
60974;BME280;46846;51.528;5.076;2022-10-16T07:26:41;100793.66;;;11.29;73.46
60974;BME280;46846;51.528;5.076;2022-10-16T07:29:11;100792.69;;;11.31;73.67
60974;BME280;46846;51.528;5.076;2022-10-16T07:31:38;100804.09;;;11.35;73.34
60974;BME280;46846;51.528;5.076;2022-10-16T07:34:04;100801.66;;;11.29;73.79
60974;BME280;46846;51.528;5.076;2022-10-16T07:36:29;100800.41;;;11.38;73.64
60974;BME280;46846;51.528;5.076;2022-10-16T07:38:54;100807.44;;;11.40;73.48
60974;BME280;46846;51.528;5.076;2022-10-16T07:41:19;100803.06;;;11.38;73.09
60974;BME280;46846;51.528;5.076;2022-10-16T07:43:54;100807.09;;;11.26;73.28
60974;BME280;46846;51.528;5.076;2022-10-16T07:46:20;100807.84;;;11.29;73.90
60974;BME280;46846;51.528;5.076;2022-10-16T07:48:45;100813.34;;;11.25;73.63
60974;BME280;46846;51.528;5.076;2022-10-16T07:51:13;100817.91;;;11.21;73.98
60974;BME280;46846;51.528;5.076;2022-10-16T07:53:38;100826.38;;;11.32;74.76
60974;BME280;46846;51.528;5.076;2022-10-16T07:56:04;100829.03;;;11.32;73.69
60974;BME280;46846;51.528;5.076;2022-10-16T07:58:31;100834.47;;;11.29;73.87
60974;BME280;46846;51.528;5.076;2022-10-16T08:00:56;100842.63;;;11.25;74.10
60974;BME280;46846;51.528;5.076;2022-10-16T08:03:22;100839.78;;;11.29;73.82
60974;BME280;46846;51.528;5.076;2022-10-16T08:05:47;100847.75;;;11.31;73.72
60974;BME280;46846;51.528;5.076;2022-10-16T08:08:13;100857.41;;;11.33;74.47
60974;BME280;46846;51.528;5.076;2022-10-16T08:10:38;100864.44;;;11.36;73.87
60974;BME280;46846;51.528;5.076;2022-10-16T08:13:04;100870.50;;;11.40;73.98
60974;BME280;46846;51.528;5.076;2022-10-16T08:15:29;100883.00;;;11.38;73.95
60974;BME280;46846;51.528;5.076;2022-10-16T08:17:55;100889.09;;;11.41;74.07
60974;BME280;46846;51.528;5.076;2022-10-16T08:20:21;100885.00;;;11.32;73.68
60974;BME280;46846;51.528;5.076;2022-10-16T08:22:46;100887.66;;;11.32;73.58
60974;BME280;46846;51.528;5.076;2022-10-16T08:25:11;100880.59;;;11.31;73.59
60974;BME280;46846;51.528;5.076;2022-10-16T08:27:36;100885.78;;;11.34;74.37
60974;BME280;46846;51.528;5.076;2022-10-16T08:30:02;100888.81;;;11.25;74.84
60974;BME280;46846;51.528;5.076;2022-10-16T08:32:27;100895.50;;;11.35;74.12
60974;BME280;46846;51.528;5.076;2022-10-16T08:34:52;100895.28;;;11.42;73.65
60974;BME280;46846;51.528;5.076;2022-10-16T08:37:17;100896.63;;;11.30;73.96
60974;BME280;46846;51.528;5.076;2022-10-16T08:39:43;100898.13;;;11.37;74.28
60974;BME280;46846;51.528;5.076;2022-10-16T08:50:10;100911.16;;;11.45;74.62
60974;BME280;46846;51.528;5.076;2022-10-16T08:52:38;100918.34;;;11.43;74.10
60974;BME280;46846;51.528;5.076;2022-10-16T08:55:04;100916.97;;;11.32;74.06
60974;BME280;46846;51.528;5.076;2022-10-16T08:57:29;100920.56;;;11.31;74.12
60974;BME280;46846;51.528;5.076;2022-10-16T08:59:57;100925.88;;;11.31;74.36
60974;BME280;46846;51.528;5.076;2022-10-16T09:02:37;100924.78;;;11.37;74.33
60974;BME280;46846;51.528;5.076;2022-10-16T09:13:00;100938.16;;;11.35;74.61
60974;BME280;46846;51.528;5.076;2022-10-16T09:15:29;100937.75;;;11.46;75.50
60974;BME280;46846;51.528;5.076;2022-10-16T09:18:06;100937.00;;;11.43;74.72
60974;BME280;46846;51.528;5.076;2022-10-16T09:23:22;100943.03;;;11.48;74.69
60974;BME280;46846;51.528;5.076;2022-10-16T09:25:50;100947.78;;;11.40;74.33
60974;BME280;46846;51.528;5.076;2022-10-16T09:28:16;100944.78;;;11.49;75.07
60974;BME280;46846;51.528;5.076;2022-10-16T09:30:42;100942.09;;;11.49;74.31
60974;BME280;46846;51.528;5.076;2022-10-16T09:33:08;100947.03;;;11.60;76.28
60974;BME280;46846;51.528;5.076;2022-10-16T09:35:47;100951.50;;;11.59;74.30
60974;BME280;46846;51.528;5.076;2022-10-16T09:38:27;100948.72;;;11.62;74.68
60974;BME280;46846;51.528;5.076;2022-10-16T09:40:53;100950.41;;;11.65;75.13
60974;BME280;46846;51.528;5.076;2022-10-16T09:43:20;100955.63;;;11.68;74.26
60974;BME280;46846;51.528;5.076;2022-10-16T09:48:30;100959.78;;;11.75;76.24
60974;BME280;46846;51.528;5.076;2022-10-16T09:50:57;100951.94;;;11.72;75.23
60974;BME280;46846;51.528;5.076;2022-10-16T09:53:23;100962.47;;;11.75;75.87
60974;BME280;46846;51.528;5.076;2022-10-16T09:55:52;100961.94;;;11.66;75.04
60974;BME280;46846;51.528;5.076;2022-10-16T09:58:21;100953.31;;;11.59;74.84
60974;BME280;46846;51.528;5.076;2022-10-16T10:00:50;100956.72;;;11.62;75.09
60974;BME280;46846;51.528;5.076;2022-10-16T10:06:14;100959.78;;;11.75;75.31
60974;BME280;46846;51.528;5.076;2022-10-16T10:08:41;100957.88;;;11.79;74.67
60974;BME280;46846;51.528;5.076;2022-10-16T10:11:17;100955.44;;;11.73;74.63
60974;BME280;46846;51.528;5.076;2022-10-16T10:13:42;100964.03;;;11.81;75.23
60974;BME280;46846;51.528;5.076;2022-10-16T10:16:07;100958.00;;;11.76;74.34
60974;BME280;46846;51.528;5.076;2022-10-16T10:18:32;100967.66;;;11.79;74.58
60974;BME280;46846;51.528;5.076;2022-10-16T10:20:58;100975.53;;;11.83;74.68
60974;BME280;46846;51.528;5.076;2022-10-16T10:23:25;100985.34;;;11.81;75.26
60974;BME280;46846;51.528;5.076;2022-10-16T10:34:02;100996.03;;;12.05;75.16
60974;BME280;46846;51.528;5.076;2022-10-16T10:36:34;100988.66;;;12.13;75.34
60974;BME280;46846;51.528;5.076;2022-10-16T10:46:50;100993.72;;;12.20;74.70
60974;BME280;46846;51.528;5.076;2022-10-16T10:49:34;101003.47;;;12.21;74.19
60974;BME280;46846;51.528;5.076;2022-10-16T10:54:40;101005.25;;;12.20;74.16
60974;BME280;46846;51.528;5.076;2022-10-16T10:57:18;101005.25;;;12.20;73.74
60974;BME280;46846;51.528;5.076;2022-10-16T11:07:21;101002.47;;;12.23;73.36
60974;BME280;46846;51.528;5.076;2022-10-16T11:09:53;101010.47;;;12.23;73.65
60974;BME280;46846;51.528;5.076;2022-10-16T11:12:24;101005.84;;;12.28;73.92
60974;BME280;46846;51.528;5.076;2022-10-16T11:15:10;101014.81;;;12.26;73.65
60974;BME280;46846;51.528;5.076;2022-10-16T11:17:45;101000.44;;;12.30;73.43
60974;BME280;46846;51.528;5.076;2022-10-16T11:22:42;101008.41;;;12.32;73.76
60974;BME280;46846;51.528;5.076;2022-10-16T11:25:26;101002.88;;;12.36;73.68
60974;BME280;46846;51.528;5.076;2022-10-16T11:30:21;101010.56;;;12.44;72.93
60974;BME280;46846;51.528;5.076;2022-10-16T11:35:30;101023.06;;;12.43;73.05
60974;BME280;46846;51.528;5.076;2022-10-16T11:37:57;101017.81;;;12.40;73.00
60974;BME280;46846;51.528;5.076;2022-10-16T11:40:25;101017.81;;;12.40;72.98
60974;BME280;46846;51.528;5.076;2022-10-16T11:42:54;101019.28;;;12.49;73.20
60974;BME280;46846;51.528;5.076;2022-10-16T11:46:08;101022.56;;;12.56;72.70
60974;BME280;46846;51.528;5.076;2022-10-16T11:48:13;101018.84;;;12.60;72.65
60974;BME280;46846;51.528;5.076;2022-10-16T11:55:44;101018.47;;;12.69;72.53
60974;BME280;46846;51.528;5.076;2022-10-16T11:58:24;101015.69;;;12.73;72.33
60974;BME280;46846;51.528;5.076;2022-10-16T12:03:34;101019.25;;;12.71;72.42
60974;BME280;46846;51.528;5.076;2022-10-16T12:08:44;101031.53;;;12.77;72.34
60974;BME280;46846;51.528;5.076;2022-10-16T12:11:23;101039.44;;;12.79;72.40
60974;BME280;46846;51.528;5.076;2022-10-16T12:13:49;101031.38;;;12.80;72.04
60974;BME280;46846;51.528;5.076;2022-10-16T12:18:40;101026.78;;;12.84;71.05
60974;BME280;46846;51.528;5.076;2022-10-16T12:21:06;101014.38;;;12.83;71.69
60974;BME280;46846;51.528;5.076;2022-10-16T12:23:38;101023.19;;;12.85;72.19
60974;BME280;46846;51.528;5.076;2022-10-16T12:26:11;101023.19;;;12.85;71.51
60974;BME280;46846;51.528;5.076;2022-10-16T12:28:36;101016.09;;;12.84;71.78
60974;BME280;46846;51.528;5.076;2022-10-16T12:31:07;101034.19;;;12.77;72.45
60974;BME280;46846;51.528;5.076;2022-10-16T12:33:39;101019.91;;;12.78;72.36
60974;BME280;46846;51.528;5.076;2022-10-16T12:36:16;101023.56;;;12.76;72.59
60974;BME280;46846;51.528;5.076;2022-10-16T12:38:51;101037.84;;;12.75;72.79
60974;BME280;46846;51.528;5.076;2022-10-16T12:41:27;101033.13;;;12.81;71.91
60974;BME280;46846;51.528;5.076;2022-10-16T12:43:53;101029.41;;;12.85;72.43
60974;BME280;46846;51.528;5.076;2022-10-16T12:48:43;101031.81;;;12.92;70.94
60974;BME280;46846;51.528;5.076;2022-10-16T12:51:10;101024.72;;;12.91;72.29
60974;BME280;46846;51.528;5.076;2022-10-16T12:53:36;101024.66;;;12.92;72.04
60974;BME280;46846;51.528;5.076;2022-10-16T12:56:09;101021.78;;;12.97;71.03
60974;BME280;46846;51.528;5.076;2022-10-16T12:58:49;101015.59;;;12.96;71.36
60974;BME280;46846;51.528;5.076;2022-10-16T13:01:20;101017.19;;;13.01;70.82
60974;BME280;46846;51.528;5.076;2022-10-16T13:06:30;101025.91;;;13.06;70.55
60974;BME280;46846;51.528;5.076;2022-10-16T13:09:10;101032.13;;;13.06;70.86
60974;BME280;46846;51.528;5.076;2022-10-16T13:23:42;101033.84;;;13.28;68.46
60974;BME280;46846;51.528;5.076;2022-10-16T13:25:36;101040.97;;;13.29;68.29
60974;BME280;46846;51.528;5.076;2022-10-16T13:28:08;101047.97;;;13.32;68.43
60974;BME280;46846;51.528;5.076;2022-10-16T13:30:36;101047.84;;;13.35;68.31
60974;BME280;46846;51.528;5.076;2022-10-16T13:33:05;101045.13;;;13.36;68.41
60974;BME280;46846;51.528;5.076;2022-10-16T13:35:32;101047.78;;;13.36;69.09
60974;BME280;46846;51.528;5.076;2022-10-16T13:38:05;101037.88;;;13.38;68.43
60974;BME280;46846;51.528;5.076;2022-10-16T13:40:30;101039.56;;;13.41;68.04
60974;BME280;46846;51.528;5.076;2022-10-16T13:42:56;101048.31;;;13.45;67.76
60974;BME280;46846;51.528;5.076;2022-10-16T13:45:24;101047.41;;;13.46;70.13
60974;BME280;46846;51.528;5.076;2022-10-16T13:48:05;101049.09;;;13.48;68.02
60974;BME280;46846;51.528;5.076;2022-10-16T13:50:31;101044.59;;;13.49;69.98
60974;BME280;46846;51.528;5.076;2022-10-16T13:53:03;101039.19;;;13.50;68.68
60974;BME280;46846;51.528;5.076;2022-10-16T13:55:28;101037.38;;;13.51;69.20
60974;BME280;46846;51.528;5.076;2022-10-16T13:58:03;101044.41;;;13.53;67.68
60974;BME280;46846;51.528;5.076;2022-10-16T14:00:29;101050.56;;;13.56;67.81
60974;BME280;46846;51.528;5.076;2022-10-16T14:02:57;101045.06;;;13.59;69.34
60974;BME280;46846;51.528;5.076;2022-10-16T14:05:23;101040.59;;;13.59;67.80
60974;BME280;46846;51.528;5.076;2022-10-16T14:07:49;101041.34;;;13.63;67.72
60974;BME280;46846;51.528;5.076;2022-10-16T14:10:23;101045.75;;;13.64;68.04
60974;BME280;46846;51.528;5.076;2022-10-16T14:13:03;101044.81;;;13.65;67.86
60974;BME280;46846;51.528;5.076;2022-10-16T14:15:30;101040.19;;;13.69;67.34
60974;BME280;46846;51.528;5.076;2022-10-16T14:17:56;101039.19;;;13.71;67.66
60974;BME280;46846;51.528;5.076;2022-10-16T14:20:24;101047.13;;;13.73;67.96
60974;BME280;46846;51.528;5.076;2022-10-16T14:22:57;101053.34;;;13.73;68.93
60974;BME280;46846;51.528;5.076;2022-10-16T14:25:28;101056.91;;;13.74;68.27
60974;BME280;46846;51.528;5.076;2022-10-16T14:30:23;101032.69;;;13.77;68.28
60974;BME280;46846;51.528;5.076;2022-10-16T14:32:56;101034.38;;;13.79;68.14
60974;BME280;46846;51.528;5.076;2022-10-16T14:35:23;101033.41;;;13.80;68.17
60974;BME280;46846;51.528;5.076;2022-10-16T14:37:51;101041.28;;;13.84;68.36